Latest Weather Observations for Beerburrum

IDQ60801

Issued at 9:02 pm EST Saturday 30 July 2016 (issued every 30 minutes, with the page automatically refreshed every 10 minutes)

About weather observations | Map of weather stations | Latest weather observations for QLD | Other Formats
Station Details ID: 040284 Name: BEERBURRUM FOREST STATION Lat: -26.96 Lon: 152.96 Height: 48.0 m
Data from the previous 72 hours. | See also: Recent months at Beerburrum
Date/Time
EST
Temp
°C
App
Temp
°C
Dew
Point
°C
Rel
Hum
%
Delta-T
°C
Wind Press
QNH
hPa
Press
MSL
hPa
Rain since
9am
mm
Dir  Spd
km/h
Gust
km/h
Spd
kts
Gust
kts
30/09:00pm 8.5 7.8 6.8 89 0.8 CALM 0 0 0 0 - - 0.0
30/08:30pm 9.1 8.5 7.4 89 0.8 CALM 0 0 0 0 - - 0.0
30/08:00pm 9.3 8.3 7.3 87 0.9 SW 2 6 1 3 - - 0.0
30/07:30pm 9.9 9.4 7.7 86 1.1 CALM 0 0 0 0 - - 0.0
30/07:00pm 10.6 10.1 7.7 82 1.4 CALM 0 0 0 0 - - 0.0
30/06:30pm 11.7 11.2 7.8 77 1.9 CALM 0 0 0 0 - - 0.0
30/06:00pm 13.0 12.6 8.1 72 2.4 CALM 0 0 0 0 - - 0.0
30/05:30pm 14.8 14.2 7.4 61 3.7 CALM 0 0 0 0 - - 0.0
30/05:00pm 17.1 16.6 7.7 54 4.7 CALM 0 0 0 0 - - 0.0
30/04:30pm 19.8 17.8 6.2 41 6.8 E 6 11 3 6 - - 0.0
30/04:00pm 20.7 19.1 2.5 30 8.5 CALM 0 0 0 0 - - 0.0
30/03:30pm 23.2 21.1 -1.0 20 10.8 CALM 0 0 0 0 - - 0.0
30/03:00pm 22.8 20.1 2.8 27 9.6 NW 6 9 3 5 - - 0.0
30/02:30pm 22.6 19.9 0.4 23 10.1 S 4 7 2 4 - - 0.0
30/02:00pm 22.9 20.4 1.8 25 9.9 W 4 11 2 6 - - 0.0
30/01:30pm 22.5 19.2 0.4 23 10.1 W 7 11 4 6 - - 0.0
30/01:00pm 22.3 19.6 2.4 27 9.4 WSW 6 11 3 6 - - 0.0
30/12:30pm 21.8 18.4 2.0 27 9.2 NW 9 19 5 10 - - 0.0
30/12:00pm 20.8 17.5 2.6 30 8.5 NNW 9 15 5 8 - - 0.0
30/11:30am 20.3 17.8 3.5 33 8.0 W 6 11 3 6 - - 0.0
30/11:00am 19.5 17.2 5.9 41 6.7 NW 7 19 4 10 - - 0.0
30/10:30am 18.8 16.7 6.6 45 6.1 WNW 7 11 4 6 - - 0.0
30/10:00am 17.9 15.4 4.8 42 6.3 NW 7 19 4 10 - - 0.0
30/09:30am 17.3 15.2 6.8 50 5.2 WSW 7 11 4 6 - - 0.0
30/09:00am 16.3 14.3 7.0 54 4.6 WSW 7 13 4 7 - - 0.2
30/08:30am 15.0 12.5 6.6 57 4.1 WSW 9 17 5 9 - - 0.2
30/08:00am 13.8 11.4 7.1 64 3.3 WSW 9 20 5 11 - - 0.2
30/07:30am 11.8 9.3 6.7 71 2.4 SW 9 20 5 11 - - 0.2
30/07:00am 9.7 7.7 6.2 79 1.6 SSW 6 7 3 4 - - 0.2
30/06:30am 10.4 8.4 6.4 76 1.9 S 6 9 3 5 - - 0.2
30/06:00am 10.6 9.3 6.0 73 2.1 ESE 2 6 1 3 - - 0.2
30/05:30am 10.0 9.1 6.2 77 1.8 CALM 0 2 0 1 - - 0.2
30/05:00am 11.0 9.4 6.2 72 2.2 S 4 9 2 5 - - 0.2
30/04:30am 10.8 9.2 6.4 74 2.1 SE 4 11 2 6 - - 0.2
30/04:00am 10.3 8.7 6.3 76 1.9 E 4 6 2 3 - - 0.2
30/03:30am 11.1 9.3 7.0 76 2.0 E 6 9 3 5 - - 0.2
30/03:00am 12.7 11.6 7.0 68 2.8 W 2 11 1 6 - - 0.2
30/02:30am 13.1 11.4 8.4 73 2.3 SW 7 11 4 6 - - 0.2
30/02:00am 12.5 11.1 9.7 83 1.4 WSW 7 15 4 8 - - 0.2
30/01:30am 11.6 10.6 10.2 91 0.7 SW 6 9 3 5 - - 0.2
30/01:00am 11.0 9.9 9.9 93 0.6 SSW 6 13 3 7 - - 0.2
30/12:30am 9.8 9.5 8.6 92 0.6 CALM 0 0 0 0 - - 0.2
30/12:00am 9.6 9.3 8.5 93 0.5 CALM 0 0 0 0 - - 0.2
 
Date/Time
EST
Temp
°C
App
Temp
°C
Dew
Point
°C
Rel
Hum
%
Delta-T
°C
Wind Press
QNH
hPa
Press
MSL
hPa
Rain since
9am
mm
Dir  Spd
km/h
Gust
km/h
Spd
kts
Gust
kts
29/11:30pm 9.2 8.7 8.0 92 0.6 CALM 0 0 0 0 - - 0.2
29/11:00pm 9.4 8.9 8.0 91 0.7 CALM 0 0 0 0 - - 0.2
29/10:30pm 9.7 9.3 8.3 91 0.7 CALM 0 0 0 0 - - 0.2
29/10:00pm 9.9 9.5 8.3 90 0.8 CALM 0 0 0 0 - - 0.2
29/09:30pm 10.1 9.8 8.5 90 0.8 CALM 0 0 0 0 - - 0.2
29/09:00pm 10.5 10.2 8.8 89 0.8 CALM 0 0 0 0 - - 0.2
29/08:30pm 11.0 10.8 8.9 87 1.0 CALM 0 0 0 0 - - 0.2
29/08:00pm 11.6 11.5 9.3 86 1.2 CALM 0 0 0 0 - - 0.2
29/07:30pm 12.1 12.0 9.3 83 1.4 CALM 0 0 0 0 - - 0.2
29/07:00pm 13.4 13.5 10.0 80 1.8 CALM 0 0 0 0 - - 0.2
29/06:30pm 14.5 13.9 10.3 76 2.2 N 4 7 2 4 - - 0.2
29/06:00pm 14.8 13.7 9.8 72 2.6 N 6 7 3 4 - - 0.2
29/05:30pm 16.4 16.5 10.0 66 3.4 CALM 0 0 0 0 - - 0.2
29/05:00pm 17.6 16.8 9.5 59 4.3 NNE 4 11 2 6 - - 0.2
29/04:30pm 19.9 19.0 9.2 50 5.7 NNE 4 9 2 5 - - 0.2
29/04:00pm 21.2 20.0 9.4 47 6.3 ENE 6 9 3 5 - - 0.2
29/03:30pm 21.9 20.4 9.1 44 6.8 E 7 11 4 6 - - 0.2
29/03:00pm 22.2 20.8 9.4 44 6.9 ENE 7 11 4 6 - - 0.2
29/02:30pm 22.2 20.5 8.3 41 7.3 NE 7 11 4 6 - - 0.2
29/02:00pm 22.9 21.3 8.2 39 7.8 ENE 6 9 3 5 - - 0.2
29/01:30pm 21.9 19.8 6.6 37 7.8 NE 7 13 4 7 - - 0.2
29/01:00pm 22.4 20.3 6.6 36 8.1 NNE 7 11 4 6 - - 0.2
29/12:30pm 21.9 20.3 8.1 41 7.2 NNE 6 11 3 6 - - 0.2
29/12:00pm 21.7 19.9 7.2 39 7.5 SW 6 9 3 5 - - 0.2
29/11:30am 21.3 19.3 6.4 38 7.5 SW 6 7 3 4 - - 0.2
29/11:00am 21.0 19.6 8.9 46 6.4 WSW 6 9 3 5 - - 0.0
29/10:30am 20.0 18.6 8.7 48 5.9 W 6 9 3 5 - - 0.0
29/10:00am 19.6 18.9 10.0 54 5.1 SW 4 7 2 4 - - 0.0
29/09:30am 18.1 16.8 9.2 56 4.7 N 6 7 3 4 - - 0.0
29/09:00am 16.8 16.2 9.0 60 4.0 SE 2 7 1 4 - - 0.0
29/08:30am 14.4 14.1 10.0 75 2.3 N 2 6 1 3 - - 0.0
29/08:00am 13.5 13.7 10.5 82 1.6 CALM 0 2 0 1 - - 0.0
29/07:30am 9.3 8.9 8.1 92 0.6 CALM 0 0 0 0 - - 0.0
29/07:00am 7.9 7.1 6.7 92 0.6 CALM 0 0 0 0 - - 0.0
29/06:30am 7.6 6.8 6.4 92 0.5 CALM 0 0 0 0 - - 0.0
29/06:00am 7.6 6.7 6.2 91 0.6 CALM 0 0 0 0 - - 0.0
29/05:30am 8.2 7.5 6.8 91 0.6 CALM 0 0 0 0 - - 0.0
29/05:00am 8.3 7.6 6.8 90 0.7 CALM 0 0 0 0 - - 0.0
29/04:30am 9.0 8.5 7.8 92 0.6 CALM 0 0 0 0 - - 0.0
29/04:00am 8.9 8.4 7.7 92 0.6 CALM 0 0 0 0 - - 0.0
29/03:30am 9.0 8.5 7.8 92 0.6 CALM 0 0 0 0 - - 0.0
29/03:00am 9.3 8.9 8.2 93 0.5 CALM 0 0 0 0 - - 0.0
29/02:30am 9.3 8.9 8.2 93 0.5 CALM 0 0 0 0 - - 0.0
29/02:00am 9.2 8.8 8.1 93 0.5 CALM 0 0 0 0 - - 0.0
29/01:30am 8.9 8.4 7.8 93 0.5 CALM 0 0 0 0 - - 0.0
29/01:00am 8.4 7.8 7.3 93 0.5 CALM 0 0 0 0 - - 0.0
29/12:30am 7.9 7.1 6.7 92 0.6 CALM 0 0 0 0 - - 0.0
29/12:00am 8.1 7.4 6.9 92 0.6 CALM 0 0 0 0 - - 0.0
 
Date/Time
EST
Temp
°C
App
Temp
°C
Dew
Point
°C
Rel
Hum
%
Delta-T
°C
Wind Press
QNH
hPa
Press
MSL
hPa
Rain since
9am
mm
Dir  Spd
km/h
Gust
km/h
Spd
kts
Gust
kts
28/11:30pm 8.2 7.5 7.0 92 0.6 CALM 0 0 0 0 - - 0.0
28/11:00pm 8.5 7.9 7.3 92 0.6 CALM 0 0 0 0 - - 0.0
28/10:30pm 8.7 8.1 7.3 91 0.7 CALM 0 0 0 0 - - 0.0
28/10:00pm 8.9 8.3 7.5 91 0.7 CALM 0 0 0 0 - - 0.0
28/09:30pm 9.1 8.6 7.7 91 0.7 CALM 0 0 0 0 - - 0.0
28/09:00pm 9.4 8.9 7.7 89 0.8 CALM 0 0 0 0 - - 0.0
28/08:30pm 9.8 9.4 8.1 89 0.8 CALM 0 0 0 0 - - 0.0
28/08:00pm 10.4 10.1 8.5 88 0.9 CALM 0 0 0 0 - - 0.0
28/07:30pm 10.9 10.6 8.8 87 1.0 CALM 0 0 0 0 - - 0.0
28/07:00pm 11.5 11.3 8.9 84 1.3 CALM 0 0 0 0 - - 0.0
28/06:30pm 12.4 12.2 9.1 80 1.7 CALM 0 0 0 0 - - 0.0
28/06:00pm 13.1 12.9 9.2 77 2.0 CALM 0 0 0 0 - - 0.0
28/05:30pm 14.2 13.9 8.8 70 2.7 CALM 0 0 0 0 - - 0.0
28/05:00pm 16.1 15.8 8.8 62 3.7 CALM 0 0 0 0 - - 0.0
28/04:30pm 19.1 18.9 9.0 52 5.3 CALM 0 6 0 3 - - 0.0
28/04:00pm 20.1 18.5 8.1 46 6.2 ESE 6 9 3 5 - - 0.0
28/03:30pm 20.4 18.7 7.4 43 6.7 SE 6 9 3 5 - - 0.0
28/03:00pm 20.8 18.7 6.7 40 7.2 E 7 11 4 6 - - 0.0
28/02:30pm 20.8 18.9 7.4 42 6.9 S 7 13 4 7 - - 0.0
28/02:00pm 21.1 19.0 5.9 37 7.6 SSE 6 11 3 6 - - 0.0
28/01:30pm 21.4 19.3 6.5 38 7.6 SSE 7 11 4 6 - - 0.0
28/01:00pm 20.8 18.5 5.6 37 7.6 ENE 7 15 4 8 - - 0.0
28/12:30pm 20.8 18.6 5.2 36 7.7 WSW 6 13 3 7 - - 0.0
28/12:00pm 20.3 18.6 5.9 39 7.2 SW 4 7 2 4 - - 0.0
28/11:30am 19.5 17.0 4.8 38 7.1 W 7 9 4 5 - - 0.0
28/11:00am 19.5 17.2 4.8 38 7.1 W 6 11 3 6 - - 0.0
28/10:30am 18.6 16.6 6.1 44 6.2 SW 6 7 3 4 - - 0.0
28/10:00am 18.1 16.0 5.7 44 6.1 WSW 6 11 3 6 - - 0.0
28/09:30am 16.4 14.1 4.8 46 5.5 W 6 13 3 7 - - 0.0
28/09:00am 15.5 13.3 5.1 50 4.9 WSW 6 9 3 5 - - 0.0
28/08:30am 13.9 12.0 6.7 62 3.5 SW 6 7 3 4 - - 0.0
28/08:00am 11.9 10.0 6.6 70 2.5 WSW 6 9 3 5 - - 0.0
28/07:30am 8.5 7.1 5.4 81 1.4 SW 2 6 1 3 - - 0.0
28/07:00am 7.9 6.4 5.0 82 1.3 SW 2 6 1 3 - - 0.0
28/06:30am 7.9 6.0 4.8 81 1.4 SW 4 7 2 4 - - 0.0
28/06:00am 7.8 6.6 4.7 81 1.4 CALM 0 0 0 0 - - 0.0
28/05:30am 7.2 6.0 4.5 83 1.2 CALM 0 0 0 0 - - 0.0
28/05:00am 7.5 6.3 4.6 82 1.3 CALM 0 0 0 0 - - 0.0
28/04:30am 7.6 6.5 5.2 85 1.1 CALM 0 0 0 0 - - 0.0
28/04:00am 8.0 5.7 4.9 81 1.4 SW 6 13 3 7 - - 0.0
28/03:30am 8.2 6.0 5.1 81 1.4 SW 6 9 3 5 - - 0.0
28/03:00am 8.8 6.6 5.4 79 1.5 WSW 6 9 3 5 - - 0.0
28/02:30am 8.0 5.9 5.6 85 1.1 WSW 6 9 3 5 - - 0.0
28/02:00am 8.3 6.6 5.9 85 1.1 WSW 4 7 2 4 - - 0.0
28/01:30am 7.8 5.7 5.6 86 1.0 WSW 6 11 3 6 - - 0.0
28/01:00am 7.2 5.7 5.2 87 0.9 WSW 2 7 1 4 - - 0.0
28/12:30am 7.7 6.6 5.3 85 1.1 CALM 0 6 0 3 - - 0.0
28/12:00am 8.3 7.2 5.2 81 1.4 CALM 0 0 0 0 - - 0.0
 
Date/Time
EST
Temp
°C
App
Temp
°C
Dew
Point
°C
Rel
Hum
%
Delta-T
°C
Wind Press
QNH
hPa
Press
MSL
hPa
Rain since
9am
mm
Dir  Spd
km/h
Gust
km/h
Spd
kts
Gust
kts
27/11:30pm 8.2 7.2 5.5 83 1.2 CALM 0 6 0 3 - - 0.0
27/11:00pm 8.5 7.5 5.8 83 1.2 CALM 0 0 0 0 - - 0.0
27/10:30pm 7.4 6.0 5.4 87 0.9 W 2 6 1 3 - - 0.0
27/10:00pm 7.8 6.9 5.9 88 0.9 CALM 0 0 0 0 - - 0.0
27/09:30pm 8.2 7.2 5.5 83 1.2 CALM 0 0 0 0 - - 0.0

Other Formats:

Comma delimited format used in spreadsheet applications
http://www.bom.gov.au/fwo/IDQ60801/IDQ60801.95566.axf

JavaScript Object Notation format (JSON) in row-major order
http://www.bom.gov.au/fwo/IDQ60801/IDQ60801.95566.json